Strona główna
METAR-TAF:

METAR-TAF

Lotnisko :

Port lotniczy Kota Kinabalu

Kota Kinabalu, Malezja

Szerokość geograficzna: 05-56N, Długość geograficzna: 116-03E, wysokość: 3 m

Aktualna obserwacja pogody

Raport powstał 28 minut temu, godzina 00:00 UTC
Wiatr 4 kt od wschodnio-południowy wschód, zmienny między wschód i południe
Temperatura 27°C
Wilgotność 74%
Ciśnienie 1012 hPa
Widzialność 10 km lub więcej
Mało chmury na wysokości 1500 ft

METAR: WBKK 130000Z 12004KT 080V170 9999 FEW015 27/22 Q1012 NOSIG

czas: 08:28 (00:28 UTC)

Prognoza

Raport powstał 1 godzina i 28 minut temu, godzina 23:00 UTC
Prognoza ważna od 13 godzina 00 UTC do 14 godzina 00 UTC
Wiatr 7 kt od zachód
Widzialność 10 km lub więcej
Mało chmury na wysokości 1500 ft
Stopniowe zmiany
od 13 godzina 10 UTC do 13 godzina 12 UTC
Wiatr 5 kt od wschodnio-południowy wschód

TAF: WBKK 122300Z 1300/1400 28007KT 9999 FEW015 BECMG 1310/1312 12005KT

Obserwacja i prognoza pogody dla ponad 4000 lotnisk (raport METAR i TAF).

Dostępne stacje oznaczono żółtymi i czerwonymi punktami na mapie.

Najedź kursorem aby zobaczyć nazwę stacji.

Kliknij aby zobaczyć obserwacje i prognozy pogody.

Aby zmienić mapę: kliknij na zielony przycisk z czarnym krzyżykiem, aby powiększyć; na zielony przycisk z myślnikiem, aby pomniejszyć; na zielone strzałki, aby przejść do map sąsiednich.


METAR-TAF: